Jansen, NE

4:05 PM CDT on September 20, 2014 (GMT -0500)
Hebron Municipal | Change Station
CLOSE
Current Station
Airport
Location: Hebron,
Elevation: 1467 ft
Nearby Weather Stations

Elev 1467 ft 40.15 °N, 97.59 °W | Updated 10 minutes ago

Clear
Clear
87 °F
Feels Like 87 °F
N
0
Wind Variable Wind from North

Today
High -- | Low -- °F
--% Chance of Precip.
Yesterday
High -- | Low -- °F
Precip. -- in
7:13 AM 7:28 PM
Waning Crescent, 10% visible
Pressure 29.96 in
Visibility 10.0 miles
Clouds Clear
Dew Point 50 °F
Humidity 27%
Rainfall 0.00 in
Snow Depth Not available.
UV 5 out of 12
Pollen 6.30 out of 12
Air Quality Not available.
Flu Activity Not available.
METAR KHJH 202055Z AUTO 00000KT 10SM CLR 31/10 A2996 RMK AO2 T03070099

More Conditions Fewer Conditions

Pressure 29.96 in
Visibility 10.0 miles
Clouds Clear
Dew Point 50 °F
Humidity 27%
Rainfall 0.00 in
Snow Depth Not available.
UV 5 out of 12
Pollen 6.30 out of 12
Air Quality Not available.
Flu Activity Not available.
METAR KHJH 202055Z AUTO 00000KT 10SM CLR 31/10 A2996 RMK AO2 T03070099

More Conditions Fewer Conditions

10-Day Weather Forecast

Almanac

Astronomy

Sep. 20, 2014 Rise Set
Actual Time 7:13 AM CDT 7:28 PM CDT
Civil Twilight 6:46 AM CDT 7:55 PM CDT
Nautical Twilight 6:14 AM CDT 8:27 PM CDT
Astronomical Twilight 5:42 AM CDT 8:59 PM CDT
Moon 3:53 AM CDT 5:32 PM CDT
Length of Visible Light 13h 08m
Length of Day
12h 14m
Tomorrow will be 2m 38s shorter.
Waning Crescent, 10% of the Moon is Illuminated
Today
Waning Crescent
Sep 24
New
Oct 1
First Quarter
Oct 8
Full
Oct 15
Last Quarter

Today's Extremes

State Highs State Lows

Community

WunderPhotos

Upload Photos

1,754,947 photos uploaded!

WunderBlogs® & News

Nearby

Snow Depth

Station Depth Elevation
No new snow has been reported.

Earthquake Activity

City Distance Mag. Time & Date
No recent earthquake activity has been reported nearby.
Minimum magnitude displayed is 2.5.

Coastal Water Temperatures

Place Temperature
No Stations Reporting

Nearby Weather Stations